McQuady, Kentucky
Current Conditions -  °F | °C
As of 12:43 PM on Saturday 20 Dec 2014 (Local Time) from KFTK Reporting Station
Overcast Overcast  
Wind Chill: 31°   Ceiling: 6000
Heat Index: 36°   Visibility: 10mi
Dew Point: 27°   Wind: 6mph
Humidity: 70%   Direction: 340°NNW
Pressure: 30.23"   Gusts: NA
Location:  37.71°N, 86.52°W
Report Text: KFTK 201843Z AUTO 34005KT 10SM OVC060 02/M03 A3023 RMK AO2
Loading
Personal Weather Stations






























Interactive Weather Map New forecast layout! Learn more

10-Day Weather Forecast

Advertisements
Track Severe Weather on mobile